Time;durP1;ratioP1;P1;durP2;ratioP2;P2;SDS_P1;SDS_P2;PMS_P1;PMS_P2;Temp;Humidity;BMP_temperature;BMP_pressure;BME280_temperature;BME280_humidity;BME280_pressure;Samples;Min_cycle;Max_cycle;Signal;HPM_P1;HPM_P2
2021/12/23 00:00:08;;;;;;;;;;;0.90;56.40;;;;;;5113067;28;19908;-64
2021/12/23 00:02:33;;;;;;;;;;;0.90;56.50;;;;;;5112982;28;19960;-64
2021/12/23 00:04:59;;;;;;;;;;;0.90;56.50;;;;;;5113068;28;19908;-63
2021/12/23 00:07:24;;;;;;;;;;;0.90;57.10;;;;;;5113688;28;20281;-64
2021/12/23 00:12:21;;;;;;;;;;;0.90;56.60;;;;;;5116697;28;19911;-64
2021/12/23 00:14:50;;;;;;;;;;;0.90;56.60;;;;;;5116363;28;20250;-64
2021/12/23 00:17:28;;;;;;;;;;;0.90;56.60;;;;;;5115285;28;19912;-64
2021/12/23 00:23:24;;;;;;;;;;;0.90;56.70;;;;;;5116374;28;20257;-64
2021/12/23 00:25:29;;;;;;;;;;;1.00;56.90;;;;;;5116750;28;20072;-64
2021/12/23 00:27:55;;;;;;;;;;;1.00;56.90;;;;;;5116337;28;19951;-63
2021/12/23 00:30:20;;;;;;;;;;;1.00;56.90;;;;;;5116192;28;19912;-64
2021/12/23 00:32:46;;;;;;;;;;;1.00;56.90;;;;;;5116311;28;20041;-63
2021/12/23 00:35:12;;;;;;;;;;;1.00;56.90;;;;;;5116151;28;20010;-64
2021/12/23 00:37:42;;;;;;;;;;;1.10;56.90;;;;;;5116113;28;19908;-64
2021/12/23 00:40:08;;;;;;;;;;;1.10;56.90;;;;;;5116033;27;19908;-64
2021/12/23 00:42:34;;;;;;;;;;;1.10;56.90;;;;;;5114657;28;19951;-64
2021/12/23 00:45:00;;;;;;;;;;;1.10;56.70;;;;;;5115936;28;19988;-63
2021/12/23 00:47:26;;;;;;;;;;;1.10;56.70;;;;;;5115887;28;19934;-64
2021/12/23 00:49:51;;;;;;;;;;;1.10;56.60;;;;;;5115776;28;19912;-64
2021/12/23 00:52:23;;;;;;;;;;;1.10;56.50;;;;;;5115771;27;19957;-64
2021/12/23 00:54:49;;;;;;;;;;;1.00;56.40;;;;;;5115823;28;19914;-63
2021/12/23 00:57:14;;;;;;;;;;;1.00;56.30;;;;;;5114659;28;19908;-64
2021/12/23 00:59:41;;;;;;;;;;;1.00;56.30;;;;;;5115578;28;19907;-63
2021/12/23 01:02:08;;;;;;;;;;;1.00;56.30;;;;;;5115497;28;19957;-64
2021/12/23 01:04:34;;;;;;;;;;;1.00;56.20;;;;;;5115471;28;19915;-64
2021/12/23 01:07:01;;;;;;;;;;;0.90;56.20;;;;;;5115478;27;19908;-63
2021/12/23 01:09:26;;;;;;;;;;;0.90;56.30;;;;;;5115365;28;19911;-64
2021/12/23 01:11:54;;;;;;;;;;;0.90;56.30;;;;;;5115370;28;19914;-64
2021/12/23 01:19:24;;;;;;;;;;;0.80;56.30;;;;;;5114755;28;19908;-64
2021/12/23 01:21:49;;;;;;;;;;;0.70;56.20;;;;;;5115176;28;20425;-64
2021/12/23 01:24:15;;;;;;;;;;;0.70;56.30;;;;;;5115153;28;19996;-64
2021/12/23 01:26:41;;;;;;;;;;;0.70;56.40;;;;;;5115002;28;19907;-64
2021/12/23 01:29:07;;;;;;;;;;;0.60;56.40;;;;;;5114977;28;19911;-64
2021/12/23 01:31:34;;;;;;;;;;;0.60;56.50;;;;;;5114839;28;19908;-64
2021/12/23 01:33:59;;;;;;;;;;;0.60;56.50;;;;;;5114943;28;19907;-63
2021/12/23 01:36:25;;;;;;;;;;;0.60;56.50;;;;;;5114896;28;19957;-64
2021/12/23 01:38:51;;;;;;;;;;;0.60;56.60;;;;;;5114891;28;20065;-64
2021/12/23 01:41:17;;;;;;;;;;;0.60;56.60;;;;;;5114781;28;20013;-64
2021/12/23 01:43:43;;;;;;;;;;;0.60;56.70;;;;;;5114815;28;19912;-64
2021/12/23 01:46:09;;;;;;;;;;;0.60;56.70;;;;;;5114776;28;19966;-64
2021/12/23 01:48:35;;;;;;;;;;;0.60;56.70;;;;;;5114575;28;19908;-64
2021/12/23 01:51:01;;;;;;;;;;;0.60;56.70;;;;;;5114621;28;20365;-64
2021/12/23 01:53:26;;;;;;;;;;;0.60;56.80;;;;;;5114899;28;20317;-64
2021/12/23 01:55:52;;;;;;;;;;;0.60;56.80;;;;;;5114478;28;19908;-65
2021/12/23 01:58:18;;;;;;;;;;;0.60;56.80;;;;;;5114515;28;19908;-64
2021/12/23 02:00:46;;;;;;;;;;;0.60;56.80;;;;;;5114424;28;19943;-65
2021/12/23 02:03:12;;;;;;;;;;;0.60;56.80;;;;;;5114303;28;19915;-64
2021/12/23 02:05:38;;;;;;;;;;;0.60;56.80;;;;;;5114292;28;20370;-64
2021/12/23 02:08:04;;;;;;;;;;;0.60;56.80;;;;;;5114402;28;19912;-64
2021/12/23 02:10:30;;;;;;;;;;;0.60;56.80;;;;;;5114278;28;19934;-64
2021/12/23 02:12:56;;;;;;;;;;;0.60;56.80;;;;;;5114142;28;20277;-64
2021/12/23 02:15:21;;;;;;;;;;;0.60;56.80;;;;;;5113780;28;19990;-64
2021/12/23 02:17:48;;;;;;;;;;;0.60;56.80;;;;;;5114041;28;20452;-64
2021/12/23 02:20:15;;;;;;;;;;;0.50;56.70;;;;;;5114036;28;19908;-64
2021/12/23 02:22:40;;;;;;;;;;;0.60;56.90;;;;;;5113974;28;19957;-64
2021/12/23 02:25:07;;;;;;;;;;;0.50;57.00;;;;;;5113799;28;19915;-64
2021/12/23 02:27:34;;;;;;;;;;;0.60;57.10;;;;;;5113834;28;19911;-64
2021/12/23 02:29:59;;;;;;;;;;;0.60;57.20;;;;;;5113630;28;19965;-64
2021/12/23 02:32:25;;;;;;;;;;;0.60;57.20;;;;;;5113881;28;20277;-64
2021/12/23 02:34:51;;;;;;;;;;;0.60;57.20;;;;;;5113830;28;19908;-65
2021/12/23 02:37:16;;;;;;;;;;;0.60;57.20;;;;;;5113716;28;19956;-64
2021/12/23 02:39:42;;;;;;;;;;;0.70;57.30;;;;;;5113727;28;19908;-65
2021/12/23 02:42:08;;;;;;;;;;;0.60;57.30;;;;;;5113629;28;20038;-64
2021/12/23 02:44:34;;;;;;;;;;;0.70;57.30;;;;;;5113679;28;19951;-64
2021/12/23 02:47:00;;;;;;;;;;;0.70;57.30;;;;;;5113621;28;19954;-64
2021/12/23 02:49:25;;;;;;;;;;;0.70;57.30;;;;;;5113562;28;20257;-64
2021/12/23 02:51:51;;;;;;;;;;;0.70;57.30;;;;;;5113462;28;20285;-64
2021/12/23 02:54:17;;;;;;;;;;;0.80;57.40;;;;;;5113516;28;19907;-64
2021/12/23 02:56:43;;;;;;;;;;;0.80;57.50;;;;;;5113534;28;20359;-65
2021/12/23 02:59:09;;;;;;;;;;;0.80;57.50;;;;;;5113423;28;19914;-64
2021/12/23 03:01:35;;;;;;;;;;;0.90;57.70;;;;;;5113464;28;19999;-64
2021/12/23 03:04:00;;;;;;;;;;;1.00;57.90;;;;;;5113491;28;19930;-65
2021/12/23 03:06:26;;;;;;;;;;;1.10;58.00;;;;;;5113308;28;19915;-64
2021/12/23 03:08:53;;;;;;;;;;;1.10;58.10;;;;;;5113355;28;19912;-64
2021/12/23 03:11:20;;;;;;;;;;;1.20;58.10;;;;;;5113367;28;19908;-64
2021/12/23 03:13:46;;;;;;;;;;;1.30;58.10;;;;;;5113379;28;19980;-64
2021/12/23 03:16:12;;;;;;;;;;;1.30;58.10;;;;;;5112988;28;19920;-64
2021/12/23 03:18:38;;;;;;;;;;;1.40;58.10;;;;;;5113329;28;20337;-64
2021/12/23 03:21:05;;;;;;;;;;;1.40;57.90;;;;;;5113276;28;20385;-64
2021/12/23 03:23:32;;;;;;;;;;;1.50;57.80;;;;;;5113189;28;20314;-64
2021/12/23 03:25:58;;;;;;;;;;;1.50;57.60;;;;;;5113282;28;20379;-64
2021/12/23 03:28:24;;;;;;;;;;;1.50;57.40;;;;;;5113264;28;20555;-64
2021/12/23 03:30:49;;;;;;;;;;;1.50;57.20;;;;;;5113138;28;19912;-64
2021/12/23 03:33:15;;;;;;;;;;;1.60;57.10;;;;;;5113127;28;19907;-64
2021/12/23 03:35:41;;;;;;;;;;;1.60;56.90;;;;;;5113148;28;19914;-64
2021/12/23 03:38:06;;;;;;;;;;;1.60;56.80;;;;;;5113143;28;20280;-64
2021/12/23 03:40:32;;;;;;;;;;;1.60;56.70;;;;;;5113109;28;19915;-64
2021/12/23 03:42:58;;;;;;;;;;;1.60;56.70;;;;;;5115038;28;19914;-64
2021/12/23 03:45:24;;;;;;;;;;;1.70;56.80;;;;;;5117070;28;19937;-64
2021/12/23 03:47:50;;;;;;;;;;;1.70;56.80;;;;;;5116930;28;19998;-64
2021/12/23 03:50:17;;;;;;;;;;;1.70;56.70;;;;;;5116875;28;19911;-64
2021/12/23 03:52:43;;;;;;;;;;;1.80;56.70;;;;;;5116868;28;20010;-64
2021/12/23 03:55:09;;;;;;;;;;;1.80;56.70;;;;;;5116818;27;19915;-64
2021/12/23 03:57:35;;;;;;;;;;;1.80;57.30;;;;;;5116733;28;19912;-64
2021/12/23 04:00:00;;;;;;;;;;;1.80;56.70;;;;;;5116746;28;19908;-64
2021/12/23 04:02:26;;;;;;;;;;;1.80;56.60;;;;;;5116638;28;19907;-64
2021/12/23 04:04:52;;;;;;;;;;;1.90;56.70;;;;;;5116653;28;19955;-64
2021/12/23 04:07:18;;;;;;;;;;;1.90;56.70;;;;;;5116541;28;19908;-65
2021/12/23 04:09:43;;;;;;;;;;;1.90;56.70;;;;;;5116452;28;19919;-64
2021/12/23 04:12:09;;;;;;;;;;;1.90;56.70;;;;;;5116393;28;19908;-64
2021/12/23 04:14:35;;;;;;;;;;;1.90;56.70;;;;;;5116397;28;19974;-64
2021/12/23 04:17:00;;;;;;;;;;;1.90;56.70;;;;;;5116236;28;19927;-64
2021/12/23 04:19:30;;;;;;;;;;;1.90;56.70;;;;;;5116338;28;19931;-64
2021/12/23 04:21:57;;;;;;;;;;;1.90;56.70;;;;;;5115000;28;19914;-64
2021/12/23 04:24:23;;;;;;;;;;;1.90;56.80;;;;;;5116197;28;20336;-65
2021/12/23 04:26:48;;;;;;;;;;;1.90;56.80;;;;;;5116244;28;20311;-64
2021/12/23 04:29:14;;;;;;;;;;;1.90;56.80;;;;;;5116147;28;19915;-64
2021/12/23 04:31:40;;;;;;;;;;;2.00;56.80;;;;;;5116110;28;20010;-64
2021/12/23 04:34:05;;;;;;;;;;;2.00;56.80;;;;;;5116054;28;19914;-64
2021/12/23 04:36:31;;;;;;;;;;;2.00;56.80;;;;;;5116006;28;19907;-64
2021/12/23 04:38:58;;;;;;;;;;;2.00;56.80;;;;;;5115878;28;19990;-64
2021/12/23 04:41:24;;;;;;;;;;;2.00;56.80;;;;;;5115917;28;20591;-64
2021/12/23 04:43:50;;;;;;;;;;;2.00;56.80;;;;;;5115894;28;20373;-64
2021/12/23 04:46:16;;;;;;;;;;;2.00;56.70;;;;;;5115725;28;20400;-64
2021/12/23 04:48:44;;;;;;;;;;;2.10;56.70;;;;;;5115684;27;19908;-64
2021/12/23 04:51:11;;;;;;;;;;;2.10;56.80;;;;;;5115710;28;19943;-64
2021/12/23 04:53:36;;;;;;;;;;;2.10;56.80;;;;;;5114910;28;19934;-64
2021/12/23 04:56:02;;;;;;;;;;;2.10;56.80;;;;;;5115077;28;19907;-64
2021/12/23 04:58:28;;;;;;;;;;;2.10;56.70;;;;;;5115519;28;19912;-64
2021/12/23 05:00:53;;;;;;;;;;;2.10;56.70;;;;;;5115529;28;19908;-64
2021/12/23 05:03:20;;;;;;;;;;;2.20;56.80;;;;;;5115454;28;19919;-64
2021/12/23 05:05:46;;;;;;;;;;;2.20;56.80;;;;;;5115428;28;19908;-64
2021/12/23 05:08:12;;;;;;;;;;;2.20;56.80;;;;;;5115383;28;19914;-64
2021/12/23 05:10:38;;;;;;;;;;;2.20;56.80;;;;;;5115267;28;20262;-64
2021/12/23 05:13:04;;;;;;;;;;;2.20;56.70;;;;;;5115276;28;19908;-64
2021/12/23 05:15:30;;;;;;;;;;;2.30;56.70;;;;;;5115079;28;19916;-64
2021/12/23 05:17:56;;;;;;;;;;;2.30;56.70;;;;;;5115153;28;19908;-64
2021/12/23 05:20:22;;;;;;;;;;;2.30;56.70;;;;;;5115096;28;19904;-64
2021/12/23 05:22:48;;;;;;;;;;;2.30;56.60;;;;;;5114990;27;20373;-65
2021/12/23 05:25:14;;;;;;;;;;;2.30;56.60;;;;;;5115027;28;19911;-64
2021/12/23 05:27:39;;;;;;;;;;;2.30;56.50;;;;;;5115039;28;19915;-64
2021/12/23 05:30:06;;;;;;;;;;;2.30;56.50;;;;;;5114854;28;19998;-64
2021/12/23 05:32:32;;;;;;;;;;;2.30;56.60;;;;;;5114905;28;19908;-64
2021/12/23 05:34:57;;;;;;;;;;;2.30;56.50;;;;;;5114821;28;20391;-64
2021/12/23 05:37:23;;;;;;;;;;;2.30;56.50;;;;;;5114787;28;19907;-64
2021/12/23 05:39:49;;;;;;;;;;;2.30;56.50;;;;;;5114733;28;19915;-65
2021/12/23 05:42:14;;;;;;;;;;;2.30;56.50;;;;;;5114748;28;19911;-64
2021/12/23 05:44:40;;;;;;;;;;;2.30;56.50;;;;;;5114589;28;20373;-64
2021/12/23 05:47:05;;;;;;;;;;;2.30;56.50;;;;;;5114665;28;19939;-64
2021/12/23 05:49:31;;;;;;;;;;;2.20;56.40;;;;;;5114427;28;19955;-64
2021/12/23 05:51:57;;;;;;;;;;;2.20;56.30;;;;;;5114405;27;19930;-64
2021/12/23 05:54:23;;;;;;;;;;;2.20;56.40;;;;;;5113185;28;19927;-64
2021/12/23 05:56:48;;;;;;;;;;;2.20;56.30;;;;;;5114428;28;19987;-64
2021/12/23 05:59:14;;;;;;;;;;;2.20;56.30;;;;;;5114274;28;19991;-64
2021/12/23 06:01:40;;;;;;;;;;;2.20;56.40;;;;;;5114354;28;19951;-64
2021/12/23 06:04:05;;;;;;;;;;;2.10;56.40;;;;;;5114243;28;19904;-64
2021/12/23 06:06:31;;;;;;;;;;;2.10;56.40;;;;;;5113725;28;19908;-65
2021/12/23 06:08:57;;;;;;;;;;;2.20;56.50;;;;;;5114116;28;19922;-64
2021/12/23 06:11:22;;;;;;;;;;;2.20;56.50;;;;;;5114142;28;19915;-64
2021/12/23 06:13:48;;;;;;;;;;;2.20;56.50;;;;;;5113834;28;19908;-65
2021/12/23 06:16:13;;;;;;;;;;;2.20;56.50;;;;;;5113853;28;19920;-64
2021/12/23 06:18:39;;;;;;;;;;;2.20;56.50;;;;;;5113894;28;19912;-64
2021/12/23 06:21:05;;;;;;;;;;;2.20;56.50;;;;;;5113809;28;20269;-64
2021/12/23 06:23:31;;;;;;;;;;;2.20;56.40;;;;;;5113970;28;19908;-62
2021/12/23 06:25:57;;;;;;;;;;;2.20;56.40;;;;;;5113831;28;19911;-64
2021/12/23 06:28:22;;;;;;;;;;;2.20;56.40;;;;;;5113642;28;19908;-64
2021/12/23 06:30:48;;;;;;;;;;;2.20;56.40;;;;;;5113720;28;19912;-65
2021/12/23 06:33:14;;;;;;;;;;;2.20;56.40;;;;;;5113649;28;19912;-64
2021/12/23 06:35:39;;;;;;;;;;;2.20;56.40;;;;;;5113649;27;19907;-64
2021/12/23 06:38:07;;;;;;;;;;;2.20;56.40;;;;;;5113559;28;19912;-63
2021/12/23 06:40:32;;;;;;;;;;;2.10;56.40;;;;;;5113726;28;19908;-64
2021/12/23 06:42:58;;;;;;;;;;;2.10;56.40;;;;;;5113613;28;20380;-64
2021/12/23 06:45:24;;;;;;;;;;;2.10;56.40;;;;;;5113530;28;19908;-64
2021/12/23 06:47:50;;;;;;;;;;;2.10;56.40;;;;;;5113518;28;19908;-64
2021/12/23 06:50:17;;;;;;;;;;;2.10;56.40;;;;;;5113519;28;19911;-64
2021/12/23 06:52:43;;;;;;;;;;;2.20;56.50;;;;;;5113715;28;20384;-64
2021/12/23 06:55:10;;;;;;;;;;;2.10;56.40;;;;;;5113478;28;19908;-64
2021/12/23 06:57:36;;;;;;;;;;;2.10;56.40;;;;;;5113515;28;19912;-64
2021/12/23 07:00:03;;;;;;;;;;;2.10;56.40;;;;;;5113410;28;19915;-64
2021/12/23 07:02:28;;;;;;;;;;;2.10;56.40;;;;;;5113382;28;20374;-64
2021/12/23 07:04:54;;;;;;;;;;;2.10;56.30;;;;;;5113362;28;19911;-64
2021/12/23 07:07:29;;;;;;;;;;;2.10;56.40;;;;;;5113479;28;19908;-65
2021/12/23 07:09:55;;;;;;;;;;;2.10;56.30;;;;;;5113401;28;19912;-64
2021/12/23 07:12:20;;;;;;;;;;;2.10;56.30;;;;;;5113369;28;19915;-64
2021/12/23 07:14:46;;;;;;;;;;;2.10;56.30;;;;;;5113025;28;19907;-65
2021/12/23 07:17:12;;;;;;;;;;;2.10;56.40;;;;;;5113786;28;19919;-64
2021/12/23 07:19:37;;;;;;;;;;;2.10;56.40;;;;;;5117447;28;19931;-64
2021/12/23 07:22:03;;;;;;;;;;;2.10;56.40;;;;;;5117463;28;19956;-64
2021/12/23 07:24:28;;;;;;;;;;;2.10;56.50;;;;;;5117524;28;20365;-64
2021/12/23 07:26:54;;;;;;;;;;;2.20;56.50;;;;;;5117333;28;19947;-64
2021/12/23 07:29:20;;;;;;;;;;;2.20;56.50;;;;;;5117203;28;19911;-64
2021/12/23 07:31:46;;;;;;;;;;;2.20;56.50;;;;;;5117334;28;19999;-64
2021/12/23 07:34:11;;;;;;;;;;;2.30;56.60;;;;;;5117163;28;20006;-64
2021/12/23 07:36:37;;;;;;;;;;;2.30;56.50;;;;;;5117272;28;19907;-64
2021/12/23 07:39:06;;;;;;;;;;;2.30;56.50;;;;;;5117391;28;19904;-64
2021/12/23 07:41:33;;;;;;;;;;;2.40;56.60;;;;;;5117654;28;20366;-64
2021/12/23 07:44:02;;;;;;;;;;;2.40;56.60;;;;;;5117301;28;19990;-64
2021/12/23 07:46:28;;;;;;;;;;;2.50;56.50;;;;;;5117000;28;19903;-64
2021/12/23 07:48:55;;;;;;;;;;;2.50;56.40;;;;;;5116699;28;19915;-64
2021/12/23 07:51:20;;;;;;;;;;;2.50;57.00;;;;;;5116846;28;19919;-64
2021/12/23 07:53:46;;;;;;;;;;;2.60;56.40;;;;;;5117473;28;19908;-65
2021/12/23 07:56:12;;;;;;;;;;;2.60;56.30;;;;;;5116895;28;19908;-64
2021/12/23 07:58:38;;;;;;;;;;;2.60;56.30;;;;;;5116750;27;19908;-64
2021/12/23 08:01:03;;;;;;;;;;;2.60;56.20;;;;;;5116797;28;19912;-64
2021/12/23 08:03:29;;;;;;;;;;;2.60;56.20;;;;;;5116446;28;19908;-64
2021/12/23 08:05:55;;;;;;;;;;;2.60;56.20;;;;;;5116583;28;20375;-64
2021/12/23 08:08:20;;;;;;;;;;;2.70;56.30;;;;;;5116629;28;19933;-65
2021/12/23 08:10:46;;;;;;;;;;;2.70;56.20;;;;;;5116490;28;20011;-64
2021/12/23 08:13:12;;;;;;;;;;;2.70;56.20;;;;;;5116531;28;19908;-64
2021/12/23 08:15:37;;;;;;;;;;;2.80;56.30;;;;;;5116264;28;19926;-64
2021/12/23 08:18:03;;;;;;;;;;;2.80;56.30;;;;;;5116239;28;19912;-64
2021/12/23 08:20:29;;;;;;;;;;;2.90;56.20;;;;;;5116289;28;20006;-64
2021/12/23 08:22:55;;;;;;;;;;;2.90;56.10;;;;;;5116271;28;20373;-64
2021/12/23 08:25:22;;;;;;;;;;;2.90;56.00;;;;;;5116165;28;20430;-65
2021/12/23 08:27:48;;;;;;;;;;;3.00;56.00;;;;;;5116225;28;19907;-65
2021/12/23 08:30:15;;;;;;;;;;;3.00;56.00;;;;;;5115857;28;20384;-64
2021/12/23 08:32:43;;;;;;;;;;;3.00;55.90;;;;;;5116072;28;19908;-64
2021/12/23 08:35:10;;;;;;;;;;;3.00;55.90;;;;;;5116098;28;19915;-64
2021/12/23 08:37:39;;;;;;;;;;;3.00;55.90;;;;;;5116014;28;19931;-64
2021/12/23 08:40:07;;;;;;;;;;;3.10;56.00;;;;;;5115912;28;20422;-65
2021/12/23 08:42:33;;;;;;;;;;;3.10;56.00;;;;;;5115623;28;19998;-64
2021/12/23 08:44:58;;;;;;;;;;;3.20;56.10;;;;;;5116019;28;20010;-64
2021/12/23 08:47:24;;;;;;;;;;;3.20;56.10;;;;;;5115705;28;19957;-65
2021/12/23 08:49:49;;;;;;;;;;;3.30;56.00;;;;;;5114355;28;19920;-64
2021/12/23 08:52:15;;;;;;;;;;;3.30;56.00;;;;;;5115435;28;20281;-64
2021/12/23 08:54:42;;;;;;;;;;;3.40;55.90;;;;;;5115516;28;20002;-65
2021/12/23 08:57:08;;;;;;;;;;;3.40;55.70;;;;;;5115395;28;20373;-64
2021/12/23 08:59:34;;;;;;;;;;;3.40;55.50;;;;;;5115408;28;19993;-64
2021/12/23 09:02:00;;;;;;;;;;;3.40;55.40;;;;;;5115381;28;19907;-65
2021/12/23 09:04:25;;;;;;;;;;;3.40;55.20;;;;;;5115501;28;19915;-65
2021/12/23 09:06:51;;;;;;;;;;;3.30;55.20;;;;;;5115363;28;19908;-64
2021/12/23 09:09:17;;;;;;;;;;;3.30;55.20;;;;;;5115410;28;20053;-65
2021/12/23 09:11:43;;;;;;;;;;;3.30;55.30;;;;;;5115232;28;19915;-65
2021/12/23 09:14:09;;;;;;;;;;;3.40;55.30;;;;;;5115138;28;20269;-65
2021/12/23 09:16:35;;;;;;;;;;;3.40;55.30;;;;;;5114913;28;20010;-64
2021/12/23 09:19:01;;;;;;;;;;;3.40;55.30;;;;;;5115178;28;19914;-64
2021/12/23 09:21:26;;;;;;;;;;;3.40;55.30;;;;;;5115161;28;19918;-65
2021/12/23 09:23:52;;;;;;;;;;;3.40;55.30;;;;;;5115083;28;19914;-65
2021/12/23 09:26:17;;;;;;;;;;;3.40;55.20;;;;;;5114973;28;19915;-64
2021/12/23 09:29:09;;;;;;;;;;;3.50;55.20;;;;;;5114858;28;19935;-65
2021/12/23 09:34:20;;;;;;;;;;;3.50;55.20;;;;;;5114916;28;20297;-65
2021/12/23 09:36:45;;;;;;;;;;;3.60;55.30;;;;;;5114819;28;19908;-64
2021/12/23 09:39:11;;;;;;;;;;;3.60;55.30;;;;;;5114865;28;19930;-64
2021/12/23 09:41:38;;;;;;;;;;;3.70;55.30;;;;;;5114085;28;19915;-65
2021/12/23 09:44:05;;;;;;;;;;;3.70;55.30;;;;;;5114604;28;19914;-64
2021/12/23 09:46:34;;;;;;;;;;;3.80;55.20;;;;;;5114641;27;19908;-65
2021/12/23 09:49:00;;;;;;;;;;;3.80;55.20;;;;;;5114525;28;19908;-65
2021/12/23 09:51:27;;;;;;;;;;;3.90;55.20;;;;;;5114490;28;19943;-65
2021/12/23 09:53:56;;;;;;;;;;;4.00;55.20;;;;;;5114634;28;19908;-65
2021/12/23 09:56:21;;;;;;;;;;;4.00;55.20;;;;;;5114375;28;19915;-65
2021/12/23 09:58:47;;;;;;;;;;;4.10;55.20;;;;;;5114465;28;19908;-65
2021/12/23 10:01:13;;;;;;;;;;;4.10;55.10;;;;;;5114325;28;19908;-65
2021/12/23 10:03:39;;;;;;;;;;;4.10;54.90;;;;;;5114270;28;19908;-65
2021/12/23 10:06:05;;;;;;;;;;;4.20;54.80;;;;;;5114207;28;19908;-65
2021/12/23 10:08:31;;;;;;;;;;;4.30;54.90;;;;;;5114192;28;19908;-65
2021/12/23 10:11:10;;;;;;;;;;;4.30;55.00;;;;;;5114082;28;19956;-65
2021/12/23 10:30:34;;;;;;;;;;;4.80;54.40;;;;;;5113746;28;19960;-65
2021/12/23 10:38:18;;;;;;;;;;;4.90;54.10;;;;;;5113681;28;19957;-65
2021/12/23 10:40:45;;;;;;;;;;;5.00;54.00;;;;;;5113681;28;19908;-65
2021/12/23 10:43:25;;;;;;;;;;;5.00;53.80;;;;;;5113671;28;20433;-65
2021/12/23 10:45:56;;;;;;;;;;;5.00;53.70;;;;;;5113728;28;19908;-65
2021/12/23 10:48:24;;;;;;;;;;;5.10;53.80;;;;;;5113632;28;19915;-64
2021/12/23 10:50:56;;;;;;;;;;;5.10;53.70;;;;;;5113627;28;19916;-65
2021/12/23 10:59:08;;;;;;;;;;;5.20;53.70;;;;;;5113825;28;19915;-64
2021/12/23 11:01:37;;;;;;;;;;;5.20;53.60;;;;;;5113549;28;19908;-64
2021/12/23 11:04:04;;;;;;;;;;;5.30;53.50;;;;;;5113344;28;19914;-65
2021/12/23 11:06:57;;;;;;;;;;;5.30;53.50;;;;;;5113385;28;20417;-64
2021/12/23 11:09:32;;;;;;;;;;;5.30;53.40;;;;;;5112873;28;19912;-63
2021/12/23 11:27:27;;;;;;;;;;;5.40;53.50;;;;;;5112120;28;19908;-65
2021/12/23 11:38:34;;;;;;;;;;;5.70;52.90;;;;;;5113246;28;19911;-65
2021/12/23 11:41:15;;;;;;;;;;;5.80;52.90;;;;;;5111881;28;20336;-65
2021/12/23 11:43:51;;;;;;;;;;;5.80;52.80;;;;;;5113515;28;20265;-65
2021/12/23 11:46:20;;;;;;;;;;;5.90;52.60;;;;;;5113029;28;19908;-65
2021/12/23 11:48:51;;;;;;;;;;;5.90;52.60;;;;;;5113054;28;19912;-65
2021/12/23 11:51:21;;;;;;;;;;;5.90;52.60;;;;;;5113095;28;19915;-65
2021/12/23 11:53:48;;;;;;;;;;;5.90;52.60;;;;;;5113008;28;19914;-65
2021/12/23 11:56:15;;;;;;;;;;;6.00;52.50;;;;;;5112896;28;20002;-65
2021/12/23 11:58:43;;;;;;;;;;;6.00;52.40;;;;;;5112954;28;19908;-65
2021/12/23 12:01:30;;;;;;;;;;;6.00;52.10;;;;;;5112945;28;19990;-65
2021/12/23 12:04:04;;;;;;;;;;;6.00;51.90;;;;;;5114173;28;20282;-65
2021/12/23 12:06:29;;;;;;;;;;;6.00;52.00;;;;;;5116665;28;19939;-65
2021/12/23 12:09:09;;;;;;;;;;;6.10;52.10;;;;;;5116475;28;19950;-65
2021/12/23 12:11:34;;;;;;;;;;;6.10;52.00;;;;;;5116483;28;19911;-66
2021/12/23 12:14:00;;;;;;;;;;;6.10;52.00;;;;;;5116416;28;19933;-64
2021/12/23 12:16:31;;;;;;;;;;;6.10;52.00;;;;;;5116280;28;19927;-64
2021/12/23 12:18:57;;;;;;;;;;;6.10;52.10;;;;;;5116444;28;20314;-64
2021/12/23 12:21:24;;;;;;;;;;;6.20;52.20;;;;;;5116407;28;20299;-65
2021/12/23 12:24:08;;;;;;;;;;;6.20;51.90;;;;;;5116504;28;19996;-64
2021/12/23 12:26:49;;;;;;;;;;;6.20;51.90;;;;;;5115372;28;20341;-64
2021/12/23 12:29:18;;;;;;;;;;;6.30;51.90;;;;;;5116090;28;19919;-64
2021/12/23 12:31:44;;;;;;;;;;;6.30;51.80;;;;;;5116076;28;19915;-64
2021/12/23 12:34:11;;;;;;;;;;;6.30;51.70;;;;;;5116075;28;19904;-65
2021/12/23 12:36:45;;;;;;;;;;;6.30;51.70;;;;;;5116011;28;19908;-64
2021/12/23 12:39:10;;;;;;;;;;;6.30;51.70;;;;;;5116044;28;19904;-64
2021/12/23 12:41:39;;;;;;;;;;;6.40;51.80;;;;;;5114704;28;20338;-64
2021/12/23 12:44:26;;;;;;;;;;;6.40;51.70;;;;;;5115907;28;19903;-64
2021/12/23 12:47:05;;;;;;;;;;;6.30;51.40;;;;;;5115985;28;19950;-65
2021/12/23 12:49:42;;;;;;;;;;;6.30;51.40;;;;;;5115800;28;19919;-64
2021/12/23 12:52:17;;;;;;;;;;;6.30;51.10;;;;;;5115852;28;19912;-64
2021/12/23 12:54:48;;;;;;;;;;;6.30;51.20;;;;;;5115656;28;19908;-65
2021/12/23 12:57:14;;;;;;;;;;;6.30;51.20;;;;;;5115354;28;19914;-64
2021/12/23 12:59:41;;;;;;;;;;;6.20;51.20;;;;;;5115881;28;19914;-64
2021/12/23 13:02:27;;;;;;;;;;;6.20;51.30;;;;;;5115594;28;19965;-65
2021/12/23 13:04:53;;;;;;;;;;;6.20;51.40;;;;;;5115131;28;20353;-65
2021/12/23 13:07:29;;;;;;;;;;;6.30;51.50;;;;;;5115559;28;20006;-64
2021/12/23 13:10:05;;;;;;;;;;;6.30;51.40;;;;;;5115235;28;19972;-65
2021/12/23 13:12:34;;;;;;;;;;;6.30;51.40;;;;;;5115338;28;19915;-65
2021/12/23 13:15:16;;;;;;;;;;;6.30;51.40;;;;;;5113876;28;19995;-64
2021/12/23 13:17:44;;;;;;;;;;;6.30;51.40;;;;;;5113930;28;19916;-64
2021/12/23 13:20:09;;;;;;;;;;;6.30;51.40;;;;;;5115195;27;20349;-65
2021/12/23 13:22:35;;;;;;;;;;;6.30;51.30;;;;;;5115133;28;19950;-65
2021/12/23 13:25:03;;;;;;;;;;;6.20;51.20;;;;;;5115089;28;19915;-64
2021/12/23 13:27:28;;;;;;;;;;;6.20;51.10;;;;;;5115029;28;19907;-64
2021/12/23 13:30:00;;;;;;;;;;;6.10;51.00;;;;;;5114897;28;19912;-64
2021/12/23 13:32:26;;;;;;;;;;;6.10;51.00;;;;;;5114987;28;19979;-65
2021/12/23 13:34:51;;;;;;;;;;;6.10;51.60;;;;;;5114951;28;19912;-64
2021/12/23 13:37:17;;;;;;;;;;;6.00;51.00;;;;;;5114909;28;19951;-64
2021/12/23 13:39:43;;;;;;;;;;;6.00;51.10;;;;;;5115399;28;19908;-65
2021/12/23 13:42:10;;;;;;;;;;;5.90;51.10;;;;;;5115350;28;20000;-64
2021/12/23 13:44:37;;;;;;;;;;;5.90;51.10;;;;;;5114665;28;19908;-64
2021/12/23 13:47:03;;;;;;;;;;;5.90;51.20;;;;;;5114344;28;19957;-65
2021/12/23 13:49:50;;;;;;;;;;;5.90;51.30;;;;;;5114399;28;19911;-65
2021/12/23 13:52:18;;;;;;;;;;;5.80;51.30;;;;;;5114473;28;19908;-64
2021/12/23 13:54:44;;;;;;;;;;;5.80;51.40;;;;;;5114502;28;19960;-64
2021/12/23 13:57:11;;;;;;;;;;;5.80;51.40;;;;;;5114346;28;19994;-65
2021/12/23 13:59:37;;;;;;;;;;;5.80;51.40;;;;;;5114703;28;20317;-64
2021/12/23 14:02:10;;;;;;;;;;;5.80;51.40;;;;;;5113007;28;20381;-65
2021/12/23 14:04:40;;;;;;;;;;;5.70;51.30;;;;;;5114241;28;19907;-64
2021/12/23 14:07:10;;;;;;;;;;;5.70;51.30;;;;;;5114280;28;19931;-64
2021/12/23 14:09:40;;;;;;;;;;;5.60;51.40;;;;;;5113987;28;20277;-64
2021/12/23 14:12:06;;;;;;;;;;;5.60;51.40;;;;;;5114119;28;20044;-65
2021/12/23 14:14:32;;;;;;;;;;;5.50;51.30;;;;;;5114016;28;20353;-64
2021/12/23 14:16:58;;;;;;;;;;;5.50;51.40;;;;;;5114012;28;19919;-65
2021/12/23 14:19:40;;;;;;;;;;;5.50;51.40;;;;;;5114206;28;20369;-64
2021/12/23 14:24:54;;;;;;;;;;;5.40;51.50;;;;;;5113958;28;19953;-65
2021/12/23 14:27:20;;;;;;;;;;;5.40;51.60;;;;;;5113732;28;20315;-64
2021/12/23 14:29:48;;;;;;;;;;;5.40;51.60;;;;;;5113804;28;19990;-65
2021/12/23 14:32:14;;;;;;;;;;;5.30;51.60;;;;;;5112837;28;20247;-65
2021/12/23 14:34:40;;;;;;;;;;;5.30;51.60;;;;;;5113751;28;20283;-65
2021/12/23 14:37:09;;;;;;;;;;;5.20;51.60;;;;;;5113777;28;19914;-64
2021/12/23 14:39:40;;;;;;;;;;;5.20;51.60;;;;;;5113722;28;20327;-64
2021/12/23 14:42:13;;;;;;;;;;;5.20;51.70;;;;;;5113744;28;20322;-64
2021/12/23 14:44:39;;;;;;;;;;;5.10;51.70;;;;;;5113668;28;19961;-64
2021/12/23 14:47:22;;;;;;;;;;;5.10;51.70;;;;;;5113601;28;19947;-64
2021/12/23 14:52:22;;;;;;;;;;;5.10;51.90;;;;;;5113987;28;19912;-64
2021/12/23 14:54:53;;;;;;;;;;;5.10;52.00;;;;;;5113569;28;19907;-64
2021/12/23 14:57:20;;;;;;;;;;;5.00;52.00;;;;;;5113607;28;19985;-64
2021/12/23 14:59:47;;;;;;;;;;;5.00;52.00;;;;;;5113530;28;19908;-64
2021/12/23 15:02:15;;;;;;;;;;;5.00;52.10;;;;;;5113434;28;19915;-64
2021/12/23 15:04:58;;;;;;;;;;;5.00;52.20;;;;;;5113440;28;19908;-64
2021/12/23 15:07:24;;;;;;;;;;;5.00;52.20;;;;;;5113146;28;19915;-64
2021/12/23 15:09:55;;;;;;;;;;;4.90;52.20;;;;;;5113234;28;19911;-63
2021/12/23 15:12:22;;;;;;;;;;;5.00;52.30;;;;;;5113530;28;19915;-64
2021/12/23 15:14:51;;;;;;;;;;;4.90;52.20;;;;;;5113152;28;19908;-64
2021/12/23 15:17:25;;;;;;;;;;;4.90;52.20;;;;;;5113391;28;19916;-64
2021/12/23 15:19:53;;;;;;;;;;;4.90;52.30;;;;;;5113372;28;19931;-64
2021/12/23 15:22:24;;;;;;;;;;;4.90;52.30;;;;;;5113253;28;20321;-63
2021/12/23 15:25:01;;;;;;;;;;;4.90;52.30;;;;;;5113290;28;20284;-64
2021/12/23 15:27:29;;;;;;;;;;;4.90;52.30;;;;;;5113100;28;19953;-64
2021/12/23 15:30:00;;;;;;;;;;;4.90;52.40;;;;;;5113051;28;20031;-64
2021/12/23 15:32:28;;;;;;;;;;;4.80;52.40;;;;;;5113140;28;19908;-64
2021/12/23 15:35:04;;;;;;;;;;;4.80;52.40;;;;;;5113117;28;19908;-64
2021/12/23 15:37:36;;;;;;;;;;;4.80;52.50;;;;;;5113178;28;20000;-64
2021/12/23 15:40:04;;;;;;;;;;;4.80;52.50;;;;;;5116486;28;20358;-64
2021/12/23 15:42:29;;;;;;;;;;;4.70;52.50;;;;;;5117110;28;20387;-64